sensor_id;sensor_type;location;lat;lon;timestamp;P1;durP1;ratioP1;P2;durP2;ratioP2
72949;SDS011;64868;45.710;9.590;2023-04-19T00:00:35;8.95;;;4.28;;
72949;SDS011;64868;45.710;9.590;2023-04-19T00:03:05;10.55;;;5.32;;
72949;SDS011;64868;45.710;9.590;2023-04-19T00:05:38;9.90;;;5.68;;
72949;SDS011;64868;45.710;9.590;2023-04-19T00:08:08;9.90;;;4.72;;
72949;SDS011;64868;45.710;9.590;2023-04-19T00:10:41;10.73;;;5.85;;
72949;SDS011;64868;45.710;9.590;2023-04-19T00:13:11;13.30;;;5.03;;
72949;SDS011;64868;45.710;9.590;2023-04-19T00:15:43;13.60;;;4.88;;
72949;SDS011;64868;45.710;9.590;2023-04-19T00:18:16;9.88;;;4.93;;
72949;SDS011;64868;45.710;9.590;2023-04-19T00:20:46;10.45;;;4.95;;
72949;SDS011;64868;45.710;9.590;2023-04-19T00:23:19;11.32;;;5.70;;
72949;SDS011;64868;45.710;9.590;2023-04-19T00:25:52;10.93;;;5.40;;
72949;SDS011;64868;45.710;9.590;2023-04-19T00:28:24;9.65;;;4.65;;
72949;SDS011;64868;45.710;9.590;2023-04-19T00:30:57;8.40;;;4.53;;
72949;SDS011;64868;45.710;9.590;2023-04-19T00:33:29;10.32;;;5.18;;
72949;SDS011;64868;45.710;9.590;2023-04-19T00:36:01;9.63;;;4.78;;
72949;SDS011;64868;45.710;9.590;2023-04-19T00:38:33;9.85;;;4.57;;
72949;SDS011;64868;45.710;9.590;2023-04-19T00:41:03;9.98;;;4.93;;
72949;SDS011;64868;45.710;9.590;2023-04-19T00:43:33;9.25;;;4.80;;
72949;SDS011;64868;45.710;9.590;2023-04-19T00:46:06;10.07;;;4.75;;
72949;SDS011;64868;45.710;9.590;2023-04-19T00:48:39;9.35;;;4.82;;
72949;SDS011;64868;45.710;9.590;2023-04-19T00:51:07;9.15;;;4.80;;
72949;SDS011;64868;45.710;9.590;2023-04-19T00:53:39;9.32;;;4.60;;
72949;SDS011;64868;45.710;9.590;2023-04-19T00:56:09;9.82;;;4.45;;
72949;SDS011;64868;45.710;9.590;2023-04-19T00:58:41;8.15;;;4.22;;
72949;SDS011;64868;45.710;9.590;2023-04-19T01:01:11;8.73;;;4.45;;
72949;SDS011;64868;45.710;9.590;2023-04-19T01:03:44;9.00;;;4.43;;
72949;SDS011;64868;45.710;9.590;2023-04-19T01:06:16;9.25;;;4.40;;
72949;SDS011;64868;45.710;9.590;2023-04-19T01:08:49;10.48;;;4.55;;
72949;SDS011;64868;45.710;9.590;2023-04-19T01:11:19;8.57;;;4.25;;
72949;SDS011;64868;45.710;9.590;2023-04-19T01:13:50;8.85;;;4.32;;
72949;SDS011;64868;45.710;9.590;2023-04-19T01:16:19;10.13;;;4.20;;
72949;SDS011;64868;45.710;9.590;2023-04-19T01:18:47;9.15;;;4.05;;
72949;SDS011;64868;45.710;9.590;2023-04-19T01:21:20;9.13;;;3.92;;
72949;SDS011;64868;45.710;9.590;2023-04-19T01:23:48;8.10;;;3.55;;
72949;SDS011;64868;45.710;9.590;2023-04-19T01:26:21;7.72;;;3.90;;
72949;SDS011;64868;45.710;9.590;2023-04-19T01:28:51;9.18;;;4.57;;
72949;SDS011;64868;45.710;9.590;2023-04-19T01:31:21;11.70;;;5.57;;
72949;SDS011;64868;45.710;9.590;2023-04-19T01:33:51;10.15;;;4.80;;
72949;SDS011;64868;45.710;9.590;2023-04-19T01:36:22;9.18;;;4.60;;
72949;SDS011;64868;45.710;9.590;2023-04-19T01:38:54;10.13;;;4.78;;
72949;SDS011;64868;45.710;9.590;2023-04-19T01:41:22;9.52;;;4.38;;
72949;SDS011;64868;45.710;9.590;2023-04-19T01:43:53;11.05;;;4.95;;
72949;SDS011;64868;45.710;9.590;2023-04-19T01:46:23;9.43;;;4.40;;
72949;SDS011;64868;45.710;9.590;2023-04-19T01:48:56;8.20;;;4.13;;
72949;SDS011;64868;45.710;9.590;2023-04-19T01:51:26;9.32;;;4.80;;
72949;SDS011;64868;45.710;9.590;2023-04-19T01:53:56;9.70;;;4.57;;
72949;SDS011;64868;45.710;9.590;2023-04-19T01:56:28;9.68;;;4.47;;
72949;SDS011;64868;45.710;9.590;2023-04-19T01:59:01;9.02;;;4.43;;
72949;SDS011;64868;45.710;9.590;2023-04-19T02:01:31;8.75;;;3.97;;
72949;SDS011;64868;45.710;9.590;2023-04-19T02:04:04;9.07;;;4.60;;
72949;SDS011;64868;45.710;9.590;2023-04-19T02:06:34;9.68;;;4.45;;
72949;SDS011;64868;45.710;9.590;2023-04-19T02:09:04;10.55;;;4.78;;
72949;SDS011;64868;45.710;9.590;2023-04-19T02:11:35;9.20;;;4.55;;
72949;SDS011;64868;45.710;9.590;2023-04-19T02:14:05;9.52;;;4.18;;
72949;SDS011;64868;45.710;9.590;2023-04-19T02:16:35;9.05;;;4.30;;
72949;SDS011;64868;45.710;9.590;2023-04-19T02:19:08;9.07;;;4.32;;
72949;SDS011;64868;45.710;9.590;2023-04-19T02:21:38;8.98;;;4.53;;
72949;SDS011;64868;45.710;9.590;2023-04-19T02:24:10;9.20;;;4.70;;
72949;SDS011;64868;45.710;9.590;2023-04-19T02:26:43;8.15;;;4.22;;
72949;SDS011;64868;45.710;9.590;2023-04-19T02:29:15;8.18;;;3.80;;
72949;SDS011;64868;45.710;9.590;2023-04-19T02:31:45;9.10;;;4.45;;
72949;SDS011;64868;45.710;9.590;2023-04-19T02:34:16;9.85;;;4.75;;
72949;SDS011;64868;45.710;9.590;2023-04-19T02:36:48;8.60;;;4.22;;
72949;SDS011;64868;45.710;9.590;2023-04-19T02:39:21;8.35;;;4.20;;
72949;SDS011;64868;45.710;9.590;2023-04-19T02:41:54;8.48;;;4.22;;
72949;SDS011;64868;45.710;9.590;2023-04-19T02:44:22;9.07;;;4.60;;
72949;SDS011;64868;45.710;9.590;2023-04-19T02:46:49;8.85;;;4.60;;
72949;SDS011;64868;45.710;9.590;2023-04-19T02:49:24;10.05;;;4.55;;
72949;SDS011;64868;45.710;9.590;2023-04-19T02:51:54;9.90;;;4.68;;
72949;SDS011;64868;45.710;9.590;2023-04-19T02:54:26;10.18;;;5.05;;
72949;SDS011;64868;45.710;9.590;2023-04-19T02:56:59;9.80;;;4.38;;
72949;SDS011;64868;45.710;9.590;2023-04-19T02:59:32;9.10;;;4.43;;
72949;SDS011;64868;45.710;9.590;2023-04-19T03:02:05;8.32;;;4.38;;
72949;SDS011;64868;45.710;9.590;2023-04-19T03:04:35;8.77;;;4.10;;
72949;SDS011;64868;45.710;9.590;2023-04-19T03:07:05;9.25;;;4.40;;
72949;SDS011;64868;45.710;9.590;2023-04-19T03:09:38;8.68;;;4.38;;
72949;SDS011;64868;45.710;9.590;2023-04-19T03:12:08;8.00;;;3.90;;
72949;SDS011;64868;45.710;9.590;2023-04-19T03:14:35;8.18;;;4.15;;
72949;SDS011;64868;45.710;9.590;2023-04-19T03:17:05;10.95;;;4.20;;
72949;SDS011;64868;45.710;9.590;2023-04-19T03:19:38;8.88;;;4.45;;
72949;SDS011;64868;45.710;9.590;2023-04-19T03:22:08;9.82;;;4.43;;
72949;SDS011;64868;45.710;9.590;2023-04-19T03:24:41;9.15;;;4.15;;
72949;SDS011;64868;45.710;9.590;2023-04-19T03:27:13;10.95;;;4.38;;
72949;SDS011;64868;45.710;9.590;2023-04-19T03:29:46;7.85;;;4.32;;
72949;SDS011;64868;45.710;9.590;2023-04-19T03:32:18;9.13;;;4.25;;
72949;SDS011;64868;45.710;9.590;2023-04-19T03:34:48;9.85;;;4.43;;
72949;SDS011;64868;45.710;9.590;2023-04-19T03:37:18;9.40;;;4.70;;
72949;SDS011;64868;45.710;9.590;2023-04-19T03:39:49;9.85;;;4.45;;
72949;SDS011;64868;45.710;9.590;2023-04-19T03:42:19;9.18;;;4.68;;
72949;SDS011;64868;45.710;9.590;2023-04-19T03:44:52;8.93;;;4.43;;
72949;SDS011;64868;45.710;9.590;2023-04-19T03:47:22;9.18;;;4.40;;
72949;SDS011;64868;45.710;9.590;2023-04-19T03:49:54;10.13;;;5.10;;
72949;SDS011;64868;45.710;9.590;2023-04-19T03:52:22;10.10;;;4.22;;
72949;SDS011;64868;45.710;9.590;2023-04-19T03:54:52;11.95;;;4.70;;
72949;SDS011;64868;45.710;9.590;2023-04-19T03:57:25;11.48;;;4.38;;
72949;SDS011;64868;45.710;9.590;2023-04-19T03:59:58;7.72;;;4.10;;
72949;SDS011;64868;45.710;9.590;2023-04-19T04:02:35;10.15;;;4.53;;
72949;SDS011;64868;45.710;9.590;2023-04-19T04:05:08;9.57;;;4.15;;
72949;SDS011;64868;45.710;9.590;2023-04-19T04:07:40;8.45;;;4.40;;
72949;SDS011;64868;45.710;9.590;2023-04-19T04:10:13;10.35;;;4.53;;
72949;SDS011;64868;45.710;9.590;2023-04-19T04:12:45;9.85;;;5.03;;
72949;SDS011;64868;45.710;9.590;2023-04-19T04:15:18;11.13;;;4.50;;
72949;SDS011;64868;45.710;9.590;2023-04-19T04:17:48;9.63;;;4.60;;
72949;SDS011;64868;45.710;9.590;2023-04-19T04:20:19;10.23;;;4.90;;
72949;SDS011;64868;45.710;9.590;2023-04-19T04:22:52;12.93;;;5.00;;
72949;SDS011;64868;45.710;9.590;2023-04-19T04:25:19;10.60;;;4.82;;
72949;SDS011;64868;45.710;9.590;2023-04-19T04:27:52;9.38;;;4.40;;
72949;SDS011;64868;45.710;9.590;2023-04-19T04:30:22;9.20;;;4.53;;
72949;SDS011;64868;45.710;9.590;2023-04-19T04:32:48;9.27;;;4.50;;
72949;SDS011;64868;45.710;9.590;2023-04-19T04:35:18;9.43;;;4.75;;
72949;SDS011;64868;45.710;9.590;2023-04-19T04:37:50;9.23;;;4.55;;
72949;SDS011;64868;45.710;9.590;2023-04-19T04:42:48;8.73;;;4.20;;
72949;SDS011;64868;45.710;9.590;2023-04-19T04:45:20;10.73;;;4.63;;
72949;SDS011;64868;45.710;9.590;2023-04-19T04:47:53;9.20;;;4.47;;
72949;SDS011;64868;45.710;9.590;2023-04-19T04:50:23;10.23;;;4.60;;
72949;SDS011;64868;45.710;9.590;2023-04-19T04:52:53;9.63;;;4.18;;
72949;SDS011;64868;45.710;9.590;2023-04-19T04:55:23;11.13;;;5.07;;
72949;SDS011;64868;45.710;9.590;2023-04-19T04:57:53;10.63;;;4.72;;
72949;SDS011;64868;45.710;9.590;2023-04-19T05:00:23;10.07;;;4.85;;
72949;SDS011;64868;45.710;9.590;2023-04-19T05:02:54;11.23;;;5.18;;
72949;SDS011;64868;45.710;9.590;2023-04-19T05:05:26;10.70;;;4.82;;
72949;SDS011;64868;45.710;9.590;2023-04-19T05:07:56;9.65;;;4.80;;
72949;SDS011;64868;45.710;9.590;2023-04-19T05:10:27;12.60;;;5.35;;
72949;SDS011;64868;45.710;9.590;2023-04-19T05:12:57;11.73;;;4.97;;
72949;SDS011;64868;45.710;9.590;2023-04-19T05:15:27;10.88;;;4.90;;
72949;SDS011;64868;45.710;9.590;2023-04-19T05:17:59;10.40;;;4.85;;
72949;SDS011;64868;45.710;9.590;2023-04-19T05:20:27;11.30;;;5.15;;
72949;SDS011;64868;45.710;9.590;2023-04-19T05:22:58;13.25;;;4.72;;
72949;SDS011;64868;45.710;9.590;2023-04-19T05:27:57;9.60;;;5.00;;
72949;SDS011;64868;45.710;9.590;2023-04-19T05:30:30;10.98;;;4.80;;
72949;SDS011;64868;45.710;9.590;2023-04-19T05:33:02;10.75;;;5.00;;
72949;SDS011;64868;45.710;9.590;2023-04-19T05:35:33;9.93;;;4.70;;
72949;SDS011;64868;45.710;9.590;2023-04-19T05:38:05;11.75;;;4.95;;
72949;SDS011;64868;45.710;9.590;2023-04-19T05:40:35;12.40;;;4.88;;
72949;SDS011;64868;45.710;9.590;2023-04-19T05:43:03;10.63;;;4.75;;
72949;SDS011;64868;45.710;9.590;2023-04-19T05:45:33;11.25;;;5.45;;
72949;SDS011;64868;45.710;9.590;2023-04-19T05:48:06;10.30;;;4.90;;
72949;SDS011;64868;45.710;9.590;2023-04-19T05:50:39;10.70;;;5.03;;
72949;SDS011;64868;45.710;9.590;2023-04-19T05:53:09;9.57;;;4.78;;
72949;SDS011;64868;45.710;9.590;2023-04-19T05:55:41;9.63;;;4.65;;
72949;SDS011;64868;45.710;9.590;2023-04-19T05:58:14;9.15;;;4.65;;
72949;SDS011;64868;45.710;9.590;2023-04-19T06:00:42;9.00;;;4.53;;
72949;SDS011;64868;45.710;9.590;2023-04-19T06:03:12;9.95;;;5.00;;
72949;SDS011;64868;45.710;9.590;2023-04-19T06:05:40;9.55;;;4.93;;
72949;SDS011;64868;45.710;9.590;2023-04-19T06:08:12;10.05;;;4.32;;
72949;SDS011;64868;45.710;9.590;2023-04-19T06:10:45;11.32;;;4.78;;
72949;SDS011;64868;45.710;9.590;2023-04-19T06:13:15;9.43;;;4.47;;
72949;SDS011;64868;45.710;9.590;2023-04-19T06:15:43;10.07;;;4.35;;
72949;SDS011;64868;45.710;9.590;2023-04-19T06:18:17;10.93;;;5.13;;
72949;SDS011;64868;45.710;9.590;2023-04-19T06:20:48;10.73;;;4.75;;
72949;SDS011;64868;45.710;9.590;2023-04-19T06:23:21;10.32;;;5.07;;
72949;SDS011;64868;45.710;9.590;2023-04-19T06:25:53;9.60;;;4.60;;
72949;SDS011;64868;45.710;9.590;2023-04-19T06:28:26;9.27;;;3.97;;
72949;SDS011;64868;45.710;9.590;2023-04-19T06:30:59;9.23;;;4.18;;
72949;SDS011;64868;45.710;9.590;2023-04-19T06:33:31;10.77;;;4.35;;
72949;SDS011;64868;45.710;9.590;2023-04-19T06:36:01;7.57;;;3.60;;
72949;SDS011;64868;45.710;9.590;2023-04-19T06:38:32;8.35;;;4.03;;
72949;SDS011;64868;45.710;9.590;2023-04-19T06:41:04;11.98;;;4.53;;
72949;SDS011;64868;45.710;9.590;2023-04-19T06:43:30;11.52;;;4.30;;
72949;SDS011;64868;45.710;9.590;2023-04-19T06:46:00;8.13;;;4.00;;
72949;SDS011;64868;45.710;9.590;2023-04-19T06:48:29;10.55;;;4.20;;
72949;SDS011;64868;45.710;9.590;2023-04-19T06:51:01;8.02;;;3.80;;
72949;SDS011;64868;45.710;9.590;2023-04-19T06:53:34;7.85;;;3.97;;
72949;SDS011;64868;45.710;9.590;2023-04-19T06:56:04;8.25;;;3.70;;
72949;SDS011;64868;45.710;9.590;2023-04-19T06:58:34;7.72;;;3.67;;
72949;SDS011;64868;45.710;9.590;2023-04-19T07:01:06;10.43;;;3.90;;
72949;SDS011;64868;45.710;9.590;2023-04-19T07:03:37;8.80;;;3.75;;
72949;SDS011;64868;45.710;9.590;2023-04-19T07:06:07;7.43;;;3.83;;
72949;SDS011;64868;45.710;9.590;2023-04-19T07:08:40;7.32;;;3.75;;
72949;SDS011;64868;45.710;9.590;2023-04-19T07:11:08;7.57;;;3.50;;
72949;SDS011;64868;45.710;9.590;2023-04-19T07:13:40;13.77;;;4.00;;
72949;SDS011;64868;45.710;9.590;2023-04-19T07:16:08;8.10;;;3.55;;
72949;SDS011;64868;45.710;9.590;2023-04-19T07:18:38;9.50;;;3.80;;
72949;SDS011;64868;45.710;9.590;2023-04-19T07:21:09;8.65;;;3.50;;
72949;SDS011;64868;45.710;9.590;2023-04-19T07:23:39;10.70;;;3.78;;
72949;SDS011;64868;45.710;9.590;2023-04-19T07:26:11;8.30;;;3.45;;
72949;SDS011;64868;45.710;9.590;2023-04-19T07:28:44;7.60;;;3.38;;
72949;SDS011;64868;45.710;9.590;2023-04-19T07:31:17;10.77;;;3.70;;
72949;SDS011;64868;45.710;9.590;2023-04-19T07:33:52;9.18;;;3.30;;
72949;SDS011;64868;45.710;9.590;2023-04-19T07:36:25;8.68;;;3.70;;
72949;SDS011;64868;45.710;9.590;2023-04-19T07:38:55;8.35;;;3.85;;
72949;SDS011;64868;45.710;9.590;2023-04-19T07:41:25;9.35;;;4.03;;
72949;SDS011;64868;45.710;9.590;2023-04-19T07:43:55;9.88;;;4.25;;
72949;SDS011;64868;45.710;9.590;2023-04-19T07:46:28;10.35;;;4.03;;
72949;SDS011;64868;45.710;9.590;2023-04-19T07:48:58;10.07;;;5.10;;
72949;SDS011;64868;45.710;9.590;2023-04-19T07:51:23;14.02;;;5.65;;
72949;SDS011;64868;45.710;9.590;2023-04-19T07:53:54;10.90;;;5.75;;
72949;SDS011;64868;45.710;9.590;2023-04-19T07:56:22;9.95;;;5.78;;
72949;SDS011;64868;45.710;9.590;2023-04-19T07:58:52;10.68;;;5.70;;
72949;SDS011;64868;45.710;9.590;2023-04-19T08:01:23;12.95;;;6.28;;
72949;SDS011;64868;45.710;9.590;2023-04-19T08:03:54;9.13;;;5.50;;
72949;SDS011;64868;45.710;9.590;2023-04-19T08:06:24;11.13;;;5.50;;
72949;SDS011;64868;45.710;9.590;2023-04-19T08:08:57;9.88;;;5.88;;
72949;SDS011;64868;45.710;9.590;2023-04-19T08:11:27;10.80;;;4.97;;
72949;SDS011;64868;45.710;9.590;2023-04-19T08:13:57;10.07;;;4.90;;
72949;SDS011;64868;45.710;9.590;2023-04-19T08:16:27;9.38;;;4.97;;
72949;SDS011;64868;45.710;9.590;2023-04-19T08:19:00;9.75;;;4.32;;
72949;SDS011;64868;45.710;9.590;2023-04-19T08:21:33;8.25;;;4.22;;
72949;SDS011;64868;45.710;9.590;2023-04-19T08:24:05;8.48;;;4.10;;
72949;SDS011;64868;45.710;9.590;2023-04-19T08:26:38;9.13;;;4.18;;
72949;SDS011;64868;45.710;9.590;2023-04-19T08:29:07;10.85;;;4.93;;
72949;SDS011;64868;45.710;9.590;2023-04-19T08:31:37;7.75;;;4.45;;
72949;SDS011;64868;45.710;9.590;2023-04-19T08:34:07;8.45;;;4.28;;
72949;SDS011;64868;45.710;9.590;2023-04-19T08:36:40;10.40;;;4.47;;
72949;SDS011;64868;45.710;9.590;2023-04-19T08:39:12;7.70;;;3.80;;
72949;SDS011;64868;45.710;9.590;2023-04-19T08:41:40;8.55;;;4.13;;
72949;SDS011;64868;45.710;9.590;2023-04-19T08:44:10;7.97;;;3.88;;
72949;SDS011;64868;45.710;9.590;2023-04-19T08:46:39;10.35;;;4.35;;
72949;SDS011;64868;45.710;9.590;2023-04-19T08:49:12;7.57;;;4.00;;
72949;SDS011;64868;45.710;9.590;2023-04-19T08:51:44;7.95;;;3.90;;
72949;SDS011;64868;45.710;9.590;2023-04-19T08:54:17;9.48;;;4.78;;
72949;SDS011;64868;45.710;9.590;2023-04-19T08:56:52;8.68;;;4.20;;
72949;SDS011;64868;45.710;9.590;2023-04-19T08:59:23;8.95;;;4.53;;
72949;SDS011;64868;45.710;9.590;2023-04-19T09:01:53;11.23;;;5.05;;
72949;SDS011;64868;45.710;9.590;2023-04-19T09:04:20;9.98;;;4.75;;
72949;SDS011;64868;45.710;9.590;2023-04-19T09:06:50;10.10;;;5.10;;
72949;SDS011;64868;45.710;9.590;2023-04-19T09:09:29;10.73;;;4.97;;
72949;SDS011;64868;45.710;9.590;2023-04-19T09:12:00;9.10;;;4.70;;
72949;SDS011;64868;45.710;9.590;2023-04-19T09:14:45;8.38;;;4.43;;
72949;SDS011;64868;45.710;9.590;2023-04-19T09:17:17;9.02;;;4.45;;
72949;SDS011;64868;45.710;9.590;2023-04-19T09:19:50;8.98;;;4.40;;
72949;SDS011;64868;45.710;9.590;2023-04-19T09:22:23;11.63;;;4.90;;
72949;SDS011;64868;45.710;9.590;2023-04-19T09:24:53;8.38;;;4.60;;
72949;SDS011;64868;45.710;9.590;2023-04-19T09:27:25;10.00;;;4.28;;
72949;SDS011;64868;45.710;9.590;2023-04-19T09:29:57;9.48;;;4.63;;
72949;SDS011;64868;45.710;9.590;2023-04-19T09:32:42;9.50;;;4.60;;
72949;SDS011;64868;45.710;9.590;2023-04-19T09:35:17;7.93;;;4.57;;
72949;SDS011;64868;45.710;9.590;2023-04-19T09:37:59;12.70;;;5.32;;
72949;SDS011;64868;45.710;9.590;2023-04-19T09:40:29;12.27;;;5.28;;
72949;SDS011;64868;45.710;9.590;2023-04-19T09:42:59;10.85;;;4.40;;
72949;SDS011;64868;45.710;9.590;2023-04-19T09:45:29;11.32;;;4.85;;
72949;SDS011;64868;45.710;9.590;2023-04-19T09:48:12;9.13;;;5.20;;
72949;SDS011;64868;45.710;9.590;2023-04-19T09:50:51;9.32;;;5.50;;
72949;SDS011;64868;45.710;9.590;2023-04-19T09:53:30;10.18;;;5.93;;
72949;SDS011;64868;45.710;9.590;2023-04-19T09:56:03;11.32;;;5.18;;
72949;SDS011;64868;45.710;9.590;2023-04-19T09:58:38;10.20;;;4.57;;
72949;SDS011;64868;45.710;9.590;2023-04-19T10:01:09;8.93;;;4.57;;
72949;SDS011;64868;45.710;9.590;2023-04-19T10:03:37;8.88;;;4.65;;
72949;SDS011;64868;45.710;9.590;2023-04-19T10:06:07;9.23;;;4.75;;
72949;SDS011;64868;45.710;9.590;2023-04-19T10:08:39;9.23;;;4.47;;
72949;SDS011;64868;45.710;9.590;2023-04-19T10:11:11;9.00;;;5.60;;
72949;SDS011;64868;45.710;9.590;2023-04-19T10:13:43;9.50;;;4.63;;
72949;SDS011;64868;45.710;9.590;2023-04-19T10:16:17;9.27;;;4.82;;
72949;SDS011;64868;45.710;9.590;2023-04-19T10:18:50;9.55;;;5.35;;
72949;SDS011;64868;45.710;9.590;2023-04-19T10:21:24;10.32;;;4.97;;
72949;SDS011;64868;45.710;9.590;2023-04-19T10:23:58;8.18;;;4.57;;
72949;SDS011;64868;45.710;9.590;2023-04-19T10:26:31;9.95;;;3.67;;
72949;SDS011;64868;45.710;9.590;2023-04-19T10:32:22;8.70;;;4.40;;
72949;SDS011;64868;45.710;9.590;2023-04-19T10:34:52;10.27;;;4.93;;
72949;SDS011;64868;45.710;9.590;2023-04-19T10:37:24;8.55;;;4.53;;
72949;SDS011;64868;45.710;9.590;2023-04-19T10:39:55;9.32;;;4.95;;
72949;SDS011;64868;45.710;9.590;2023-04-19T10:42:43;8.05;;;4.35;;
72949;SDS011;64868;45.710;9.590;2023-04-19T10:45:32;9.00;;;4.70;;
72949;SDS011;64868;45.710;9.590;2023-04-19T10:48:02;9.85;;;4.90;;
72949;SDS011;64868;45.710;9.590;2023-04-19T10:50:50;8.38;;;4.60;;
72949;SDS011;64868;45.710;9.590;2023-04-19T10:57:07;8.77;;;5.82;;
72949;SDS011;64868;45.710;9.590;2023-04-19T10:59:31;11.15;;;4.80;;
72949;SDS011;64868;45.710;9.590;2023-04-19T11:02:04;9.57;;;5.30;;
72949;SDS011;64868;45.710;9.590;2023-04-19T11:07:24;12.07;;;5.30;;
72949;SDS011;64868;45.710;9.590;2023-04-19T11:09:57;12.50;;;5.60;;
72949;SDS011;64868;45.710;9.590;2023-04-19T11:12:30;10.07;;;5.72;;
72949;SDS011;64868;45.710;9.590;2023-04-19T11:15:04;12.48;;;6.35;;
72949;SDS011;64868;45.710;9.590;2023-04-19T11:17:35;8.77;;;5.00;;
72949;SDS011;64868;45.710;9.590;2023-04-19T11:20:06;10.20;;;5.38;;
72949;SDS011;64868;45.710;9.590;2023-04-19T11:22:42;10.00;;;4.90;;
72949;SDS011;64868;45.710;9.590;2023-04-19T11:25:13;10.77;;;6.07;;
72949;SDS011;64868;45.710;9.590;2023-04-19T11:27:48;11.57;;;5.60;;
72949;SDS011;64868;45.710;9.590;2023-04-19T11:30:20;8.77;;;5.18;;
72949;SDS011;64868;45.710;9.590;2023-04-19T11:32:56;9.15;;;5.47;;
72949;SDS011;64868;45.710;9.590;2023-04-19T11:35:26;8.07;;;4.97;;
72949;SDS011;64868;45.710;9.590;2023-04-19T11:37:58;9.93;;;5.93;;
72949;SDS011;64868;45.710;9.590;2023-04-19T11:40:30;10.73;;;5.15;;
72949;SDS011;64868;45.710;9.590;2023-04-19T11:43:03;9.32;;;5.35;;
72949;SDS011;64868;45.710;9.590;2023-04-19T11:45:35;9.93;;;5.40;;
72949;SDS011;64868;45.710;9.590;2023-04-19T11:48:04;10.68;;;5.28;;
72949;SDS011;64868;45.710;9.590;2023-04-19T11:50:35;11.00;;;5.68;;
72949;SDS011;64868;45.710;9.590;2023-04-19T11:53:38;9.27;;;5.63;;
72949;SDS011;64868;45.710;9.590;2023-04-19T11:56:05;10.52;;;6.28;;
72949;SDS011;64868;45.710;9.590;2023-04-19T11:58:35;12.30;;;5.47;;
72949;SDS011;64868;45.710;9.590;2023-04-19T12:01:13;12.65;;;5.55;;
72949;SDS011;64868;45.710;9.590;2023-04-19T12:03:50;11.13;;;6.13;;
72949;SDS011;64868;45.710;9.590;2023-04-19T12:06:29;9.77;;;6.25;;
72949;SDS011;64868;45.710;9.590;2023-04-19T12:09:05;9.82;;;5.18;;
72949;SDS011;64868;45.710;9.590;2023-04-19T12:11:45;11.77;;;5.82;;
72949;SDS011;64868;45.710;9.590;2023-04-19T12:14:20;36.80;;;6.28;;
72949;SDS011;64868;45.710;9.590;2023-04-19T12:17:05;9.05;;;5.22;;
72949;SDS011;64868;45.710;9.590;2023-04-19T12:19:46;10.05;;;5.38;;
72949;SDS011;64868;45.710;9.590;2023-04-19T12:22:19;9.82;;;5.90;;
72949;SDS011;64868;45.710;9.590;2023-04-19T12:24:54;9.90;;;5.28;;
72949;SDS011;64868;45.710;9.590;2023-04-19T12:27:27;8.38;;;4.93;;
72949;SDS011;64868;45.710;9.590;2023-04-19T12:30:00;13.52;;;4.97;;
72949;SDS011;64868;45.710;9.590;2023-04-19T12:32:27;8.13;;;4.95;;
72949;SDS011;64868;45.710;9.590;2023-04-19T12:35:00;8.88;;;5.25;;
72949;SDS011;64868;45.710;9.590;2023-04-19T12:37:33;11.07;;;5.38;;
72949;SDS011;64868;45.710;9.590;2023-04-19T12:40:05;10.55;;;5.78;;
72949;SDS011;64868;45.710;9.590;2023-04-19T12:42:36;7.53;;;4.40;;
72949;SDS011;64868;45.710;9.590;2023-04-19T12:45:04;9.90;;;4.85;;
72949;SDS011;64868;45.710;9.590;2023-04-19T12:47:33;10.98;;;6.53;;
72949;SDS011;64868;45.710;9.590;2023-04-19T12:50:03;9.60;;;5.60;;
72949;SDS011;64868;45.710;9.590;2023-04-19T12:52:33;11.95;;;5.63;;
72949;SDS011;64868;45.710;9.590;2023-04-19T12:55:03;10.82;;;6.32;;
72949;SDS011;64868;45.710;9.590;2023-04-19T12:57:34;8.43;;;4.85;;
72949;SDS011;64868;45.710;9.590;2023-04-19T13:00:05;8.95;;;5.00;;
72949;SDS011;64868;45.710;9.590;2023-04-19T13:02:36;18.65;;;9.30;;
72949;SDS011;64868;45.710;9.590;2023-04-19T13:05:06;9.82;;;5.55;;
72949;SDS011;64868;45.710;9.590;2023-04-19T13:07:37;9.55;;;4.90;;
72949;SDS011;64868;45.710;9.590;2023-04-19T13:10:05;8.43;;;5.00;;
72949;SDS011;64868;45.710;9.590;2023-04-19T13:12:38;9.50;;;5.60;;
72949;SDS011;64868;45.710;9.590;2023-04-19T13:15:08;9.15;;;5.75;;
72949;SDS011;64868;45.710;9.590;2023-04-19T13:17:40;11.93;;;5.78;;
72949;SDS011;64868;45.710;9.590;2023-04-19T13:20:08;9.20;;;5.57;;
72949;SDS011;64868;45.710;9.590;2023-04-19T13:22:38;9.18;;;4.68;;
72949;SDS011;64868;45.710;9.590;2023-04-19T13:25:11;10.25;;;5.30;;
72949;SDS011;64868;45.710;9.590;2023-04-19T13:27:43;10.32;;;6.20;;
72949;SDS011;64868;45.710;9.590;2023-04-19T13:30:16;12.50;;;6.28;;
72949;SDS011;64868;45.710;9.590;2023-04-19T13:32:46;9.82;;;6.57;;
72949;SDS011;64868;45.710;9.590;2023-04-19T13:35:19;11.18;;;7.13;;
72949;SDS011;64868;45.710;9.590;2023-04-19T13:37:51;11.00;;;6.72;;
72949;SDS011;64868;45.710;9.590;2023-04-19T13:40:21;10.70;;;5.70;;
72949;SDS011;64868;45.710;9.590;2023-04-19T13:42:51;11.52;;;6.50;;
72949;SDS011;64868;45.710;9.590;2023-04-19T13:45:21;10.43;;;6.30;;
72949;SDS011;64868;45.710;9.590;2023-04-19T13:47:51;9.38;;;5.55;;
72949;SDS011;64868;45.710;9.590;2023-04-19T13:50:21;10.70;;;6.13;;
72949;SDS011;64868;45.710;9.590;2023-04-19T13:52:51;9.25;;;6.18;;
72949;SDS011;64868;45.710;9.590;2023-04-19T13:55:23;9.25;;;5.75;;
72949;SDS011;64868;45.710;9.590;2023-04-19T13:57:55;10.25;;;5.35;;
72949;SDS011;64868;45.710;9.590;2023-04-19T14:00:28;9.27;;;5.65;;
72949;SDS011;64868;45.710;9.590;2023-04-19T14:02:58;9.55;;;5.18;;
72949;SDS011;64868;45.710;9.590;2023-04-19T14:05:28;11.65;;;5.97;;
72949;SDS011;64868;45.710;9.590;2023-04-19T14:07:58;9.10;;;5.38;;
72949;SDS011;64868;45.710;9.590;2023-04-19T14:10:26;10.52;;;6.63;;
72949;SDS011;64868;45.710;9.590;2023-04-19T14:12:54;9.85;;;5.40;;
72949;SDS011;64868;45.710;9.590;2023-04-19T14:15:21;12.02;;;6.25;;
72949;SDS011;64868;45.710;9.590;2023-04-19T14:17:51;10.93;;;6.05;;
72949;SDS011;64868;45.710;9.590;2023-04-19T14:20:22;12.38;;;5.95;;
72949;SDS011;64868;45.710;9.590;2023-04-19T14:22:49;9.45;;;5.70;;
72949;SDS011;64868;45.710;9.590;2023-04-19T14:25:22;11.45;;;6.50;;
72949;SDS011;64868;45.710;9.590;2023-04-19T14:27:52;9.35;;;5.78;;
72949;SDS011;64868;45.710;9.590;2023-04-19T14:30:20;9.40;;;5.63;;
72949;SDS011;64868;45.710;9.590;2023-04-19T14:32:53;9.98;;;5.47;;
72949;SDS011;64868;45.710;9.590;2023-04-19T14:35:23;11.43;;;7.18;;
72949;SDS011;64868;45.710;9.590;2023-04-19T14:37:53;15.82;;;8.63;;
72949;SDS011;64868;45.710;9.590;2023-04-19T14:40:26;11.65;;;7.13;;
72949;SDS011;64868;45.710;9.590;2023-04-19T14:42:58;10.73;;;6.50;;
72949;SDS011;64868;45.710;9.590;2023-04-19T14:45:28;11.02;;;6.40;;
72949;SDS011;64868;45.710;9.590;2023-04-19T14:47:56;11.30;;;6.93;;
72949;SDS011;64868;45.710;9.590;2023-04-19T14:50:29;13.05;;;6.95;;
72949;SDS011;64868;45.710;9.590;2023-04-19T14:52:59;12.93;;;7.82;;
72949;SDS011;64868;45.710;9.590;2023-04-19T14:55:29;12.70;;;7.60;;
72949;SDS011;64868;45.710;9.590;2023-04-19T14:57:59;11.30;;;7.50;;
72949;SDS011;64868;45.710;9.590;2023-04-19T15:00:27;11.57;;;6.90;;
72949;SDS011;64868;45.710;9.590;2023-04-19T15:02:55;15.77;;;7.57;;
72949;SDS011;64868;45.710;9.590;2023-04-19T15:05:27;10.82;;;6.07;;
72949;SDS011;64868;45.710;9.590;2023-04-19T15:08:00;13.57;;;7.05;;
72949;SDS011;64868;45.710;9.590;2023-04-19T15:10:33;11.63;;;6.75;;
72949;SDS011;64868;45.710;9.590;2023-04-19T15:13:04;11.98;;;7.10;;
72949;SDS011;64868;45.710;9.590;2023-04-19T15:15:34;12.32;;;6.70;;
72949;SDS011;64868;45.710;9.590;2023-04-19T15:18:04;9.55;;;5.95;;
72949;SDS011;64868;45.710;9.590;2023-04-19T15:20:35;12.68;;;6.10;;
72949;SDS011;64868;45.710;9.590;2023-04-19T15:23:05;12.27;;;6.72;;